sensor_id;sensor_type;location;lat;lon;timestamp;temperature;humidity
15554;DHT22;7878;44.632;10.942;2023-04-16T00:00:47;14.30;78.30
15554;DHT22;7878;44.632;10.942;2023-04-16T00:03:13;14.40;78.40
15554;DHT22;7878;44.632;10.942;2023-04-16T00:05:39;14.30;77.80
15554;DHT22;7878;44.632;10.942;2023-04-16T00:08:05;14.40;78.40
15554;DHT22;7878;44.632;10.942;2023-04-16T00:10:30;14.40;78.10
15554;DHT22;7878;44.632;10.942;2023-04-16T00:12:56;14.40;78.30
15554;DHT22;7878;44.632;10.942;2023-04-16T00:15:22;14.40;78.50
15554;DHT22;7878;44.632;10.942;2023-04-16T00:17:48;14.30;78.20
15554;DHT22;7878;44.632;10.942;2023-04-16T00:20:14;14.30;78.00
15554;DHT22;7878;44.632;10.942;2023-04-16T00:22:39;14.30;78.30
15554;DHT22;7878;44.632;10.942;2023-04-16T00:25:05;14.30;78.30
15554;DHT22;7878;44.632;10.942;2023-04-16T00:27:31;14.30;78.50
15554;DHT22;7878;44.632;10.942;2023-04-16T00:29:57;14.30;78.50
15554;DHT22;7878;44.632;10.942;2023-04-16T00:32:22;14.20;78.10
15554;DHT22;7878;44.632;10.942;2023-04-16T00:34:48;14.20;78.30
15554;DHT22;7878;44.632;10.942;2023-04-16T00:37:14;14.20;78.10
15554;DHT22;7878;44.632;10.942;2023-04-16T00:39:40;14.20;78.40
15554;DHT22;7878;44.632;10.942;2023-04-16T00:42:05;14.20;78.20
15554;DHT22;7878;44.632;10.942;2023-04-16T00:44:31;14.20;78.40
15554;DHT22;7878;44.632;10.942;2023-04-16T00:47:01;14.20;78.50
15554;DHT22;7878;44.632;10.942;2023-04-16T00:49:27;14.20;78.40
15554;DHT22;7878;44.632;10.942;2023-04-16T00:51:56;14.20;78.40
15554;DHT22;7878;44.632;10.942;2023-04-16T00:54:23;14.20;78.50
15554;DHT22;7878;44.632;10.942;2023-04-16T00:56:49;14.30;78.60
15554;DHT22;7878;44.632;10.942;2023-04-16T00:59:15;14.30;78.40
15554;DHT22;7878;44.632;10.942;2023-04-16T01:01:41;14.30;78.20
15554;DHT22;7878;44.632;10.942;2023-04-16T01:04:06;14.40;78.40
15554;DHT22;7878;44.632;10.942;2023-04-16T01:06:32;14.30;78.10
15554;DHT22;7878;44.632;10.942;2023-04-16T01:08:58;14.40;78.40
15554;DHT22;7878;44.632;10.942;2023-04-16T01:11:23;14.40;78.40
15554;DHT22;7878;44.632;10.942;2023-04-16T01:13:50;14.40;78.20
15554;DHT22;7878;44.632;10.942;2023-04-16T01:16:15;14.40;78.10
15554;DHT22;7878;44.632;10.942;2023-04-16T01:18:41;14.50;78.00
15554;DHT22;7878;44.632;10.942;2023-04-16T01:21:07;14.40;78.30
15554;DHT22;7878;44.632;10.942;2023-04-16T01:23:33;14.50;78.20
15554;DHT22;7878;44.632;10.942;2023-04-16T01:25:58;14.40;78.60
15554;DHT22;7878;44.632;10.942;2023-04-16T01:28:24;14.40;78.30
15554;DHT22;7878;44.632;10.942;2023-04-16T01:30:50;14.50;78.50
15554;DHT22;7878;44.632;10.942;2023-04-16T01:33:16;14.50;78.20
15554;DHT22;7878;44.632;10.942;2023-04-16T01:35:42;14.50;77.70
15554;DHT22;7878;44.632;10.942;2023-04-16T01:38:08;14.50;78.20
15554;DHT22;7878;44.632;10.942;2023-04-16T01:40:36;14.40;78.60
15554;DHT22;7878;44.632;10.942;2023-04-16T01:43:02;14.40;78.20
15554;DHT22;7878;44.632;10.942;2023-04-16T01:45:28;14.40;78.60
15554;DHT22;7878;44.632;10.942;2023-04-16T01:47:55;14.30;78.50
15554;DHT22;7878;44.632;10.942;2023-04-16T01:50:21;14.30;78.50
15554;DHT22;7878;44.632;10.942;2023-04-16T01:52:47;14.30;78.50
15554;DHT22;7878;44.632;10.942;2023-04-16T01:55:13;14.30;78.50
15554;DHT22;7878;44.632;10.942;2023-04-16T01:57:39;14.30;78.10
15554;DHT22;7878;44.632;10.942;2023-04-16T02:00:05;14.30;78.50
15554;DHT22;7878;44.632;10.942;2023-04-16T02:02:33;14.30;78.30
15554;DHT22;7878;44.632;10.942;2023-04-16T02:04:59;14.30;78.20
15554;DHT22;7878;44.632;10.942;2023-04-16T02:07:25;14.40;78.40
15554;DHT22;7878;44.632;10.942;2023-04-16T02:09:52;14.40;78.00
15554;DHT22;7878;44.632;10.942;2023-04-16T02:12:18;14.40;78.10
15554;DHT22;7878;44.632;10.942;2023-04-16T02:14:44;14.40;77.80
15554;DHT22;7878;44.632;10.942;2023-04-16T02:17:10;14.40;77.90
15554;DHT22;7878;44.632;10.942;2023-04-16T02:19:36;14.40;78.00
15554;DHT22;7878;44.632;10.942;2023-04-16T02:22:02;14.40;78.10
15554;DHT22;7878;44.632;10.942;2023-04-16T02:24:28;14.40;78.00
15554;DHT22;7878;44.632;10.942;2023-04-16T02:26:53;14.40;77.80
15554;DHT22;7878;44.632;10.942;2023-04-16T02:29:19;14.40;77.80
15554;DHT22;7878;44.632;10.942;2023-04-16T02:31:47;14.40;78.00
15554;DHT22;7878;44.632;10.942;2023-04-16T02:34:13;14.40;77.80
15554;DHT22;7878;44.632;10.942;2023-04-16T02:36:39;14.30;77.70
15554;DHT22;7878;44.632;10.942;2023-04-16T02:39:05;14.40;78.10
15554;DHT22;7878;44.632;10.942;2023-04-16T02:41:30;14.40;77.50
15554;DHT22;7878;44.632;10.942;2023-04-16T02:43:56;14.40;77.90
15554;DHT22;7878;44.632;10.942;2023-04-16T02:46:22;14.30;77.30
15554;DHT22;7878;44.632;10.942;2023-04-16T02:48:47;14.30;77.30
15554;DHT22;7878;44.632;10.942;2023-04-16T02:51:13;14.30;77.50
15554;DHT22;7878;44.632;10.942;2023-04-16T02:53:39;14.30;77.60
15554;DHT22;7878;44.632;10.942;2023-04-16T02:56:05;14.40;77.40
15554;DHT22;7878;44.632;10.942;2023-04-16T02:58:30;14.40;77.60
15554;DHT22;7878;44.632;10.942;2023-04-16T03:00:56;14.30;77.50
15554;DHT22;7878;44.632;10.942;2023-04-16T03:03:22;14.30;77.50
15554;DHT22;7878;44.632;10.942;2023-04-16T03:05:48;14.30;77.70
15554;DHT22;7878;44.632;10.942;2023-04-16T03:08:13;14.40;77.60
15554;DHT22;7878;44.632;10.942;2023-04-16T03:10:39;14.40;77.60
15554;DHT22;7878;44.632;10.942;2023-04-16T03:13:06;14.40;77.40
15554;DHT22;7878;44.632;10.942;2023-04-16T03:15:32;14.40;77.40
15554;DHT22;7878;44.632;10.942;2023-04-16T03:17:58;14.40;77.30
15554;DHT22;7878;44.632;10.942;2023-04-16T03:20:24;14.40;77.40
15554;DHT22;7878;44.632;10.942;2023-04-16T03:22:51;14.40;78.50
15554;DHT22;7878;44.632;10.942;2023-04-16T03:25:17;14.40;77.80
15554;DHT22;7878;44.632;10.942;2023-04-16T03:27:43;14.40;77.70
15554;DHT22;7878;44.632;10.942;2023-04-16T03:30:12;14.30;77.30
15554;DHT22;7878;44.632;10.942;2023-04-16T03:32:39;14.30;77.30
15554;DHT22;7878;44.632;10.942;2023-04-16T03:35:05;14.30;77.60
15554;DHT22;7878;44.632;10.942;2023-04-16T03:37:31;14.30;77.90
15554;DHT22;7878;44.632;10.942;2023-04-16T03:39:57;14.30;77.40
15554;DHT22;7878;44.632;10.942;2023-04-16T03:42:23;14.30;77.30
15554;DHT22;7878;44.632;10.942;2023-04-16T03:44:48;14.30;77.30
15554;DHT22;7878;44.632;10.942;2023-04-16T03:47:14;14.30;78.00
15554;DHT22;7878;44.632;10.942;2023-04-16T03:49:40;14.30;77.40
15554;DHT22;7878;44.632;10.942;2023-04-16T03:52:06;14.20;77.20
15554;DHT22;7878;44.632;10.942;2023-04-16T03:54:32;14.30;77.40
15554;DHT22;7878;44.632;10.942;2023-04-16T03:56:57;14.30;77.60
15554;DHT22;7878;44.632;10.942;2023-04-16T03:59:23;14.20;77.80
15554;DHT22;7878;44.632;10.942;2023-04-16T04:01:49;14.20;77.70
15554;DHT22;7878;44.632;10.942;2023-04-16T04:04:15;14.10;77.70
15554;DHT22;7878;44.632;10.942;2023-04-16T04:06:41;14.10;77.80
15554;DHT22;7878;44.632;10.942;2023-04-16T04:09:06;14.00;77.40
15554;DHT22;7878;44.632;10.942;2023-04-16T04:11:32;14.00;77.50
15554;DHT22;7878;44.632;10.942;2023-04-16T04:13:58;14.00;78.00
15554;DHT22;7878;44.632;10.942;2023-04-16T04:16:23;14.00;77.80
15554;DHT22;7878;44.632;10.942;2023-04-16T04:18:49;14.00;78.20
15554;DHT22;7878;44.632;10.942;2023-04-16T04:21:15;14.00;77.80
15554;DHT22;7878;44.632;10.942;2023-04-16T04:23:41;14.00;78.20
15554;DHT22;7878;44.632;10.942;2023-04-16T04:26:08;14.00;78.20
15554;DHT22;7878;44.632;10.942;2023-04-16T04:28:34;14.00;78.40
15554;DHT22;7878;44.632;10.942;2023-04-16T04:31:00;14.00;78.50
15554;DHT22;7878;44.632;10.942;2023-04-16T04:33:27;14.00;78.60
15554;DHT22;7878;44.632;10.942;2023-04-16T04:35:53;14.00;78.30
15554;DHT22;7878;44.632;10.942;2023-04-16T04:38:19;13.90;78.20
15554;DHT22;7878;44.632;10.942;2023-04-16T04:40:49;13.90;78.40
15554;DHT22;7878;44.632;10.942;2023-04-16T04:43:15;13.90;78.90
15554;DHT22;7878;44.632;10.942;2023-04-16T04:45:41;13.80;78.70
15554;DHT22;7878;44.632;10.942;2023-04-16T04:48:07;13.80;78.60
15554;DHT22;7878;44.632;10.942;2023-04-16T04:50:32;13.80;78.60
15554;DHT22;7878;44.632;10.942;2023-04-16T04:52:58;13.80;79.00
15554;DHT22;7878;44.632;10.942;2023-04-16T04:55:24;13.80;78.80
15554;DHT22;7878;44.632;10.942;2023-04-16T04:57:49;13.80;79.00
15554;DHT22;7878;44.632;10.942;2023-04-16T05:00:15;13.80;78.90
15554;DHT22;7878;44.632;10.942;2023-04-16T05:02:41;13.80;79.40
15554;DHT22;7878;44.632;10.942;2023-04-16T05:05:07;13.80;79.10
15554;DHT22;7878;44.632;10.942;2023-04-16T05:07:32;13.80;79.20
15554;DHT22;7878;44.632;10.942;2023-04-16T05:09:58;13.80;78.90
15554;DHT22;7878;44.632;10.942;2023-04-16T05:12:24;13.80;79.00
15554;DHT22;7878;44.632;10.942;2023-04-16T05:14:49;13.80;79.00
15554;DHT22;7878;44.632;10.942;2023-04-16T05:17:15;13.80;79.00
15554;DHT22;7878;44.632;10.942;2023-04-16T05:19:41;13.70;79.10
15554;DHT22;7878;44.632;10.942;2023-04-16T05:22:07;13.80;79.00
15554;DHT22;7878;44.632;10.942;2023-04-16T05:24:32;13.80;78.70
15554;DHT22;7878;44.632;10.942;2023-04-16T05:26:58;13.80;79.00
15554;DHT22;7878;44.632;10.942;2023-04-16T05:29:23;13.80;79.40
15554;DHT22;7878;44.632;10.942;2023-04-16T05:31:49;13.80;79.10
15554;DHT22;7878;44.632;10.942;2023-04-16T05:34:15;13.80;79.50
15554;DHT22;7878;44.632;10.942;2023-04-16T05:36:41;13.80;79.60
15554;DHT22;7878;44.632;10.942;2023-04-16T05:39:07;13.80;79.10
15554;DHT22;7878;44.632;10.942;2023-04-16T05:41:33;13.80;79.20
15554;DHT22;7878;44.632;10.942;2023-04-16T05:43:58;13.80;79.90
15554;DHT22;7878;44.632;10.942;2023-04-16T05:46:24;13.80;79.80
15554;DHT22;7878;44.632;10.942;2023-04-16T05:48:51;13.80;79.70
15554;DHT22;7878;44.632;10.942;2023-04-16T05:51:16;13.80;79.60
15554;DHT22;7878;44.632;10.942;2023-04-16T05:53:42;13.80;79.30
15554;DHT22;7878;44.632;10.942;2023-04-16T05:56:08;13.90;79.80
15554;DHT22;7878;44.632;10.942;2023-04-16T05:58:33;13.90;80.00
15554;DHT22;7878;44.632;10.942;2023-04-16T06:00:59;13.80;79.80
15554;DHT22;7878;44.632;10.942;2023-04-16T06:03:26;13.80;79.60
15554;DHT22;7878;44.632;10.942;2023-04-16T06:05:51;13.90;79.40
15554;DHT22;7878;44.632;10.942;2023-04-16T06:08:17;13.90;79.60
15554;DHT22;7878;44.632;10.942;2023-04-16T06:10:45;13.90;79.40
15554;DHT22;7878;44.632;10.942;2023-04-16T06:13:11;13.90;79.40
15554;DHT22;7878;44.632;10.942;2023-04-16T06:15:37;13.90;79.40
15554;DHT22;7878;44.632;10.942;2023-04-16T06:18:02;14.00;79.40
15554;DHT22;7878;44.632;10.942;2023-04-16T06:20:28;14.00;79.40
15554;DHT22;7878;44.632;10.942;2023-04-16T06:22:54;14.00;79.40
15554;DHT22;7878;44.632;10.942;2023-04-16T06:25:20;14.00;79.20
15554;DHT22;7878;44.632;10.942;2023-04-16T06:27:46;14.10;79.30
15554;DHT22;7878;44.632;10.942;2023-04-16T06:30:13;14.20;79.30
15554;DHT22;7878;44.632;10.942;2023-04-16T06:32:39;14.20;79.60
15554;DHT22;7878;44.632;10.942;2023-04-16T06:35:05;14.20;79.00
15554;DHT22;7878;44.632;10.942;2023-04-16T06:37:31;14.20;78.70
15554;DHT22;7878;44.632;10.942;2023-04-16T06:39:56;14.30;79.10
15554;DHT22;7878;44.632;10.942;2023-04-16T06:42:22;14.30;79.10
15554;DHT22;7878;44.632;10.942;2023-04-16T06:44:48;14.30;79.20
15554;DHT22;7878;44.632;10.942;2023-04-16T06:47:14;14.40;79.20
15554;DHT22;7878;44.632;10.942;2023-04-16T06:49:40;14.40;79.10
15554;DHT22;7878;44.632;10.942;2023-04-16T06:52:06;14.50;79.30
15554;DHT22;7878;44.632;10.942;2023-04-16T06:54:32;14.60;79.40
15554;DHT22;7878;44.632;10.942;2023-04-16T06:56:58;14.80;79.00
15554;DHT22;7878;44.632;10.942;2023-04-16T06:59:24;15.00;79.20
15554;DHT22;7878;44.632;10.942;2023-04-16T07:01:50;15.30;78.70
15554;DHT22;7878;44.632;10.942;2023-04-16T07:04:16;15.70;78.70
15554;DHT22;7878;44.632;10.942;2023-04-16T07:06:42;15.90;78.10
15554;DHT22;7878;44.632;10.942;2023-04-16T07:09:08;16.20;78.00
15554;DHT22;7878;44.632;10.942;2023-04-16T07:11:34;16.70;77.80
15554;DHT22;7878;44.632;10.942;2023-04-16T07:14:00;17.10;77.20
15554;DHT22;7878;44.632;10.942;2023-04-16T07:16:26;17.50;77.00
15554;DHT22;7878;44.632;10.942;2023-04-16T07:18:51;17.50;76.70
15554;DHT22;7878;44.632;10.942;2023-04-16T07:21:17;17.60;76.90
15554;DHT22;7878;44.632;10.942;2023-04-16T07:23:42;17.70;76.60
15554;DHT22;7878;44.632;10.942;2023-04-16T07:26:08;17.80;76.30
15554;DHT22;7878;44.632;10.942;2023-04-16T07:28:35;17.80;76.30
15554;DHT22;7878;44.632;10.942;2023-04-16T07:31:01;17.60;76.30
15554;DHT22;7878;44.632;10.942;2023-04-16T07:33:27;17.50;76.30
15554;DHT22;7878;44.632;10.942;2023-04-16T07:35:53;17.40;76.70
15554;DHT22;7878;44.632;10.942;2023-04-16T07:38:18;17.40;76.60
15554;DHT22;7878;44.632;10.942;2023-04-16T07:40:44;17.50;77.00
15554;DHT22;7878;44.632;10.942;2023-04-16T07:43:10;17.70;76.90
15554;DHT22;7878;44.632;10.942;2023-04-16T07:45:36;18.00;76.90
15554;DHT22;7878;44.632;10.942;2023-04-16T07:48:01;18.30;76.40
15554;DHT22;7878;44.632;10.942;2023-04-16T07:50:27;18.40;76.20
15554;DHT22;7878;44.632;10.942;2023-04-16T07:52:53;18.40;76.10
15554;DHT22;7878;44.632;10.942;2023-04-16T07:55:18;18.30;76.60
15554;DHT22;7878;44.632;10.942;2023-04-16T07:57:44;18.20;76.20
15554;DHT22;7878;44.632;10.942;2023-04-16T08:00:10;18.60;75.90
15554;DHT22;7878;44.632;10.942;2023-04-16T08:02:36;19.20;75.30
15554;DHT22;7878;44.632;10.942;2023-04-16T08:05:02;19.50;74.40
15554;DHT22;7878;44.632;10.942;2023-04-16T08:07:28;19.80;74.50
15554;DHT22;7878;44.632;10.942;2023-04-16T08:09:54;19.90;74.10
15554;DHT22;7878;44.632;10.942;2023-04-16T08:12:19;19.70;74.00
15554;DHT22;7878;44.632;10.942;2023-04-16T08:14:46;19.60;74.40
15554;DHT22;7878;44.632;10.942;2023-04-16T08:17:12;19.60;73.80
15554;DHT22;7878;44.632;10.942;2023-04-16T08:19:38;19.90;73.00
15554;DHT22;7878;44.632;10.942;2023-04-16T08:22:05;20.40;73.70
15554;DHT22;7878;44.632;10.942;2023-04-16T08:24:30;20.90;72.90
15554;DHT22;7878;44.632;10.942;2023-04-16T08:26:56;21.50;72.40
15554;DHT22;7878;44.632;10.942;2023-04-16T08:29:22;22.40;71.50
15554;DHT22;7878;44.632;10.942;2023-04-16T08:31:51;22.90;70.80
15554;DHT22;7878;44.632;10.942;2023-04-16T08:34:17;23.00;69.90
15554;DHT22;7878;44.632;10.942;2023-04-16T08:36:42;23.20;68.40
15554;DHT22;7878;44.632;10.942;2023-04-16T08:39:08;22.60;68.90
15554;DHT22;7878;44.632;10.942;2023-04-16T08:41:36;22.40;69.60
15554;DHT22;7878;44.632;10.942;2023-04-16T08:44:07;22.10;69.00
15554;DHT22;7878;44.632;10.942;2023-04-16T08:46:36;21.70;69.10
15554;DHT22;7878;44.632;10.942;2023-04-16T08:49:05;21.20;70.40
15554;DHT22;7878;44.632;10.942;2023-04-16T08:51:33;20.90;70.30
15554;DHT22;7878;44.632;10.942;2023-04-16T08:54:05;20.60;69.60
15554;DHT22;7878;44.632;10.942;2023-04-16T08:56:35;20.50;70.80
15554;DHT22;7878;44.632;10.942;2023-04-16T08:59:02;20.50;71.10
15554;DHT22;7878;44.632;10.942;2023-04-16T09:01:31;20.50;69.50
15554;DHT22;7878;44.632;10.942;2023-04-16T09:03:58;20.30;68.80
15554;DHT22;7878;44.632;10.942;2023-04-16T09:06:26;20.20;69.30
15554;DHT22;7878;44.632;10.942;2023-04-16T09:08:53;20.10;68.30
15554;DHT22;7878;44.632;10.942;2023-04-16T09:11:19;19.90;66.20
15554;DHT22;7878;44.632;10.942;2023-04-16T09:13:45;19.80;66.50
15554;DHT22;7878;44.632;10.942;2023-04-16T09:16:12;19.80;67.60
15554;DHT22;7878;44.632;10.942;2023-04-16T09:18:39;19.90;68.20
15554;DHT22;7878;44.632;10.942;2023-04-16T09:21:08;20.10;67.10
15554;DHT22;7878;44.632;10.942;2023-04-16T09:23:36;20.30;66.10
15554;DHT22;7878;44.632;10.942;2023-04-16T09:26:04;21.20;66.60
15554;DHT22;7878;44.632;10.942;2023-04-16T09:28:39;22.90;64.40
15554;DHT22;7878;44.632;10.942;2023-04-16T09:31:10;22.70;60.70
15554;DHT22;7878;44.632;10.942;2023-04-16T09:33:37;22.20;61.40
15554;DHT22;7878;44.632;10.942;2023-04-16T09:36:04;21.70;64.30
15554;DHT22;7878;44.632;10.942;2023-04-16T09:38:51;21.30;62.90
15554;DHT22;7878;44.632;10.942;2023-04-16T09:41:17;20.90;58.40
15554;DHT22;7878;44.632;10.942;2023-04-16T09:43:57;20.60;62.50
15554;DHT22;7878;44.632;10.942;2023-04-16T09:46:33;20.50;59.80
15554;DHT22;7878;44.632;10.942;2023-04-16T09:49:16;20.40;62.80
15554;DHT22;7878;44.632;10.942;2023-04-16T09:51:47;20.40;62.10
15554;DHT22;7878;44.632;10.942;2023-04-16T09:54:15;20.30;61.60
15554;DHT22;7878;44.632;10.942;2023-04-16T09:56:45;20.10;63.10
15554;DHT22;7878;44.632;10.942;2023-04-16T09:59:18;20.10;63.10
15554;DHT22;7878;44.632;10.942;2023-04-16T10:01:44;20.10;63.50
15554;DHT22;7878;44.632;10.942;2023-04-16T10:04:14;20.10;61.60
15554;DHT22;7878;44.632;10.942;2023-04-16T10:06:40;19.90;62.60
15554;DHT22;7878;44.632;10.942;2023-04-16T10:09:08;20.00;61.10
15554;DHT22;7878;44.632;10.942;2023-04-16T10:11:35;19.90;62.40
15554;DHT22;7878;44.632;10.942;2023-04-16T10:14:01;19.90;63.00
15554;DHT22;7878;44.632;10.942;2023-04-16T10:16:28;20.00;62.90
15554;DHT22;7878;44.632;10.942;2023-04-16T10:18:55;20.10;62.70
15554;DHT22;7878;44.632;10.942;2023-04-16T10:21:22;20.20;62.00
15554;DHT22;7878;44.632;10.942;2023-04-16T10:23:50;20.10;60.40
15554;DHT22;7878;44.632;10.942;2023-04-16T10:26:17;19.90;61.60
15554;DHT22;7878;44.632;10.942;2023-04-16T10:28:44;19.90;60.90
15554;DHT22;7878;44.632;10.942;2023-04-16T10:31:10;20.00;62.40
15554;DHT22;7878;44.632;10.942;2023-04-16T10:33:39;20.10;62.20
15554;DHT22;7878;44.632;10.942;2023-04-16T10:36:10;20.20;61.80
15554;DHT22;7878;44.632;10.942;2023-04-16T10:38:43;20.30;62.50
15554;DHT22;7878;44.632;10.942;2023-04-16T10:41:09;20.40;61.60
15554;DHT22;7878;44.632;10.942;2023-04-16T10:43:39;20.30;61.30
15554;DHT22;7878;44.632;10.942;2023-04-16T10:46:25;20.40;62.00
15554;DHT22;7878;44.632;10.942;2023-04-16T10:48:55;20.60;58.90
15554;DHT22;7878;44.632;10.942;2023-04-16T10:51:32;20.70;61.30
15554;DHT22;7878;44.632;10.942;2023-04-16T10:54:18;20.90;60.10
15554;DHT22;7878;44.632;10.942;2023-04-16T10:56:45;20.90;58.80
15554;DHT22;7878;44.632;10.942;2023-04-16T10:59:12;20.90;60.50
15554;DHT22;7878;44.632;10.942;2023-04-16T11:01:42;21.00;60.40
15554;DHT22;7878;44.632;10.942;2023-04-16T11:09:59;21.50;56.60
15554;DHT22;7878;44.632;10.942;2023-04-16T11:12:37;22.10;56.80
15554;DHT22;7878;44.632;10.942;2023-04-16T11:15:05;23.10;54.80
15554;DHT22;7878;44.632;10.942;2023-04-16T11:17:36;24.00;56.90
15554;DHT22;7878;44.632;10.942;2023-04-16T11:20:08;25.00;56.90
15554;DHT22;7878;44.632;10.942;2023-04-16T11:22:35;24.50;55.80
15554;DHT22;7878;44.632;10.942;2023-04-16T11:25:04;23.40;56.20
15554;DHT22;7878;44.632;10.942;2023-04-16T11:27:30;23.10;57.00
15554;DHT22;7878;44.632;10.942;2023-04-16T11:30:14;22.80;57.90
15554;DHT22;7878;44.632;10.942;2023-04-16T11:32:40;23.20;54.70
15554;DHT22;7878;44.632;10.942;2023-04-16T11:35:24;23.50;57.30
15554;DHT22;7878;44.632;10.942;2023-04-16T11:37:54;23.80;52.20
15554;DHT22;7878;44.632;10.942;2023-04-16T11:40:20;23.80;55.00
15554;DHT22;7878;44.632;10.942;2023-04-16T11:42:46;23.50;56.40
15554;DHT22;7878;44.632;10.942;2023-04-16T11:45:12;23.20;55.50
15554;DHT22;7878;44.632;10.942;2023-04-16T11:47:45;23.10;57.10
15554;DHT22;7878;44.632;10.942;2023-04-16T11:50:22;22.80;57.00
15554;DHT22;7878;44.632;10.942;2023-04-16T11:52:49;22.60;55.20
15554;DHT22;7878;44.632;10.942;2023-04-16T11:55:19;22.40;57.60
15554;DHT22;7878;44.632;10.942;2023-04-16T11:57:45;22.30;57.60
15554;DHT22;7878;44.632;10.942;2023-04-16T12:00:12;22.20;56.60
15554;DHT22;7878;44.632;10.942;2023-04-16T12:02:49;22.00;55.60
15554;DHT22;7878;44.632;10.942;2023-04-16T12:05:36;21.70;55.40
15554;DHT22;7878;44.632;10.942;2023-04-16T12:08:10;21.60;54.50
15554;DHT22;7878;44.632;10.942;2023-04-16T12:10:53;21.60;55.90
15554;DHT22;7878;44.632;10.942;2023-04-16T12:13:19;21.60;57.20
15554;DHT22;7878;44.632;10.942;2023-04-16T12:15:49;21.40;58.10
15554;DHT22;7878;44.632;10.942;2023-04-16T12:18:20;21.40;58.60
15554;DHT22;7878;44.632;10.942;2023-04-16T12:20:47;21.50;58.40
15554;DHT22;7878;44.632;10.942;2023-04-16T12:23:23;21.50;56.90
15554;DHT22;7878;44.632;10.942;2023-04-16T12:25:49;21.50;55.10
15554;DHT22;7878;44.632;10.942;2023-04-16T12:28:33;21.40;58.40
15554;DHT22;7878;44.632;10.942;2023-04-16T12:31:00;21.40;56.70
15554;DHT22;7878;44.632;10.942;2023-04-16T12:33:26;21.30;57.20
15554;DHT22;7878;44.632;10.942;2023-04-16T12:35:52;21.20;57.60
15554;DHT22;7878;44.632;10.942;2023-04-16T12:38:17;21.30;58.20
15554;DHT22;7878;44.632;10.942;2023-04-16T12:40:44;21.50;58.10
15554;DHT22;7878;44.632;10.942;2023-04-16T12:43:10;21.50;57.60
15554;DHT22;7878;44.632;10.942;2023-04-16T12:45:36;21.40;57.10
15554;DHT22;7878;44.632;10.942;2023-04-16T12:48:02;21.30;57.70
15554;DHT22;7878;44.632;10.942;2023-04-16T12:50:28;21.20;58.00
15554;DHT22;7878;44.632;10.942;2023-04-16T12:52:57;21.20;57.40
15554;DHT22;7878;44.632;10.942;2023-04-16T12:55:23;21.20;56.60
15554;DHT22;7878;44.632;10.942;2023-04-16T12:57:49;21.30;56.70
15554;DHT22;7878;44.632;10.942;2023-04-16T13:00:17;21.30;56.40
15554;DHT22;7878;44.632;10.942;2023-04-16T13:02:44;21.30;57.00
15554;DHT22;7878;44.632;10.942;2023-04-16T13:05:09;21.30;57.40
15554;DHT22;7878;44.632;10.942;2023-04-16T13:07:35;21.30;56.30
15554;DHT22;7878;44.632;10.942;2023-04-16T13:10:01;21.20;55.50
15554;DHT22;7878;44.632;10.942;2023-04-16T13:12:27;21.20;55.80
15554;DHT22;7878;44.632;10.942;2023-04-16T13:14:54;21.20;56.80
15554;DHT22;7878;44.632;10.942;2023-04-16T13:17:19;21.20;56.90
15554;DHT22;7878;44.632;10.942;2023-04-16T13:19:45;21.20;56.50
15554;DHT22;7878;44.632;10.942;2023-04-16T13:22:11;21.20;57.00
15554;DHT22;7878;44.632;10.942;2023-04-16T13:24:37;21.20;53.50
15554;DHT22;7878;44.632;10.942;2023-04-16T13:27:03;21.10;56.00
15554;DHT22;7878;44.632;10.942;2023-04-16T13:29:29;21.10;55.40
15554;DHT22;7878;44.632;10.942;2023-04-16T13:31:56;21.20;54.40
15554;DHT22;7878;44.632;10.942;2023-04-16T13:34:22;21.10;55.80
15554;DHT22;7878;44.632;10.942;2023-04-16T13:36:47;21.10;56.50
15554;DHT22;7878;44.632;10.942;2023-04-16T13:39:13;21.10;56.60
15554;DHT22;7878;44.632;10.942;2023-04-16T13:41:40;21.10;57.00
15554;DHT22;7878;44.632;10.942;2023-04-16T13:44:06;21.20;55.80
15554;DHT22;7878;44.632;10.942;2023-04-16T13:46:32;21.00;55.00
15554;DHT22;7878;44.632;10.942;2023-04-16T13:48:58;20.90;55.30
15554;DHT22;7878;44.632;10.942;2023-04-16T13:51:26;20.70;54.10
15554;DHT22;7878;44.632;10.942;2023-04-16T13:53:53;20.70;55.90
15554;DHT22;7878;44.632;10.942;2023-04-16T13:56:20;20.70;56.60
15554;DHT22;7878;44.632;10.942;2023-04-16T13:58:45;20.80;56.00
15554;DHT22;7878;44.632;10.942;2023-04-16T14:01:11;20.90;56.60
15554;DHT22;7878;44.632;10.942;2023-04-16T14:03:37;20.80;54.70
15554;DHT22;7878;44.632;10.942;2023-04-16T14:06:05;20.70;56.10
15554;DHT22;7878;44.632;10.942;2023-04-16T14:08:31;20.60;55.30
15554;DHT22;7878;44.632;10.942;2023-04-16T14:10:57;20.60;56.30
15554;DHT22;7878;44.632;10.942;2023-04-16T14:13:23;20.50;54.50
15554;DHT22;7878;44.632;10.942;2023-04-16T14:15:49;20.50;56.00
15554;DHT22;7878;44.632;10.942;2023-04-16T14:18:17;20.40;55.10
15554;DHT22;7878;44.632;10.942;2023-04-16T14:20:43;20.50;54.80
15554;DHT22;7878;44.632;10.942;2023-04-16T14:23:08;20.60;54.20
15554;DHT22;7878;44.632;10.942;2023-04-16T14:25:34;20.50;54.40
15554;DHT22;7878;44.632;10.942;2023-04-16T14:28:00;20.50;55.40
15554;DHT22;7878;44.632;10.942;2023-04-16T14:30:26;20.60;56.30
15554;DHT22;7878;44.632;10.942;2023-04-16T14:32:51;20.70;55.70
15554;DHT22;7878;44.632;10.942;2023-04-16T14:35:17;20.70;56.60
15554;DHT22;7878;44.632;10.942;2023-04-16T14:37:43;20.60;55.40
15554;DHT22;7878;44.632;10.942;2023-04-16T14:40:09;20.50;56.00
15554;DHT22;7878;44.632;10.942;2023-04-16T14:42:36;20.40;56.20
15554;DHT22;7878;44.632;10.942;2023-04-16T14:45:03;20.40;56.40
15554;DHT22;7878;44.632;10.942;2023-04-16T14:47:33;20.40;56.30
15554;DHT22;7878;44.632;10.942;2023-04-16T14:49:59;20.40;55.60
15554;DHT22;7878;44.632;10.942;2023-04-16T14:52:25;20.50;55.40
15554;DHT22;7878;44.632;10.942;2023-04-16T14:54:52;20.30;55.20
15554;DHT22;7878;44.632;10.942;2023-04-16T14:57:19;20.40;55.40
15554;DHT22;7878;44.632;10.942;2023-04-16T14:59:45;20.30;55.90
15554;DHT22;7878;44.632;10.942;2023-04-16T15:02:11;20.20;56.00
15554;DHT22;7878;44.632;10.942;2023-04-16T15:04:37;20.30;55.80
15554;DHT22;7878;44.632;10.942;2023-04-16T15:07:02;20.30;56.00
15554;DHT22;7878;44.632;10.942;2023-04-16T15:09:28;20.30;55.70
15554;DHT22;7878;44.632;10.942;2023-04-16T15:11:54;20.30;55.40
15554;DHT22;7878;44.632;10.942;2023-04-16T15:14:20;20.20;55.00
15554;DHT22;7878;44.632;10.942;2023-04-16T15:16:46;20.20;55.20
15554;DHT22;7878;44.632;10.942;2023-04-16T15:19:12;20.20;55.60
15554;DHT22;7878;44.632;10.942;2023-04-16T15:21:38;20.20;54.40
15554;DHT22;7878;44.632;10.942;2023-04-16T15:24:04;20.20;53.90
15554;DHT22;7878;44.632;10.942;2023-04-16T15:26:30;20.10;53.90
15554;DHT22;7878;44.632;10.942;2023-04-16T15:28:55;20.10;55.10
15554;DHT22;7878;44.632;10.942;2023-04-16T15:31:22;20.20;54.50
15554;DHT22;7878;44.632;10.942;2023-04-16T15:33:48;20.20;54.40